createdAt,value
2018-11-26T00:01:36.792Z,97915.99
2018-11-26T00:04:42.305Z,97919.13
2018-11-26T00:07:49.029Z,97921.31
2018-11-26T00:12:02.952Z,97912.75
2018-11-26T00:15:08.592Z,97916.58
2018-11-26T00:18:13.996Z,97923.47
2018-11-26T00:21:19.396Z,97927.66
2018-11-26T00:24:24.801Z,97931.21
2018-11-26T00:27:30.441Z,97933.39
2018-11-26T00:30:35.962Z,97932.09
2018-11-26T00:33:41.486Z,97932.92
2018-11-26T00:36:46.887Z,97927.54
2018-11-26T00:39:52.291Z,97926.30
2018-11-26T00:42:57.691Z,97922.94
2018-11-26T00:46:03.214Z,97920.92
2018-11-26T00:49:08.620Z,97913.27
2018-11-26T00:52:14.017Z,97907.66
2018-11-26T00:55:19.422Z,97904.06
2018-11-26T00:58:24.822Z,97902.01
2018-11-26T01:01:30.224Z,97904.30
2018-11-26T01:04:35.668Z,97905.83
2018-11-26T01:07:41.028Z,97906.67
2018-11-26T01:10:46.310Z,97909.71
2018-11-26T01:13:51.711Z,97912.36
2018-11-26T01:16:57.114Z,97919.02
2018-11-26T01:20:02.516Z,97915.56
2018-11-26T01:23:07.919Z,97913.08
2018-11-26T01:26:13.321Z,97916.22
2018-11-26T01:29:18.963Z,97909.44
2018-11-26T01:32:24.366Z,97916.31
2018-11-26T01:35:29.647Z,97918.11
2018-11-26T01:38:35.049Z,97919.13
2018-11-26T01:41:40.452Z,97920.34
2018-11-26T01:44:45.855Z,97921.38
2018-11-26T01:47:51.256Z,97917.81
2018-11-26T01:50:56.657Z,97916.74
2018-11-26T01:54:02.180Z,97923.51
2018-11-26T01:57:07.581Z,97921.12
2018-11-26T02:00:19.585Z,97923.51
2018-11-26T02:03:24.988Z,97922.85
2018-11-26T02:06:30.506Z,97919.84
2018-11-26T02:09:35.909Z,97921.25
2018-11-26T02:12:41.312Z,97923.80
2018-11-26T02:15:46.593Z,97924.88
2018-11-26T02:18:51.997Z,97916.36
2018-11-26T02:21:57.401Z,97916.09
2018-11-26T02:25:02.683Z,97909.97
2018-11-26T02:28:08.084Z,97906.64
2018-11-26T02:31:13.484Z,97900.67
2018-11-26T02:34:18.886Z,97901.67
2018-11-26T02:37:24.447Z,97895.20
2018-11-26T02:40:31.252Z,97903.52
2018-11-26T02:43:36.655Z,97900.33
2018-11-26T02:46:42.054Z,97898.53
2018-11-26T02:49:47.336Z,97898.53
2018-11-26T02:53:03.539Z,97896.97
2018-11-26T02:56:09.060Z,97893.98
2018-11-26T02:59:14.463Z,97894.87
2018-11-26T03:02:20.105Z,97891.90
2018-11-26T03:05:26.827Z,97889.35
2018-11-26T03:08:32.229Z,97883.22
2018-11-26T03:11:37.991Z,97885.89
2018-11-26T03:14:43.634Z,97890.88
2018-11-26T03:17:49.038Z,97886.86
2018-11-26T03:20:54.438Z,97886.31
2018-11-26T03:23:59.840Z,97889.36
2018-11-26T03:27:05.842Z,97884.72
2018-11-26T03:30:13.525Z,97883.24
2018-11-26T03:33:19.288Z,97885.77
2018-11-26T03:36:24.808Z,97891.09
2018-11-26T03:39:30.210Z,97890.08
2018-11-26T03:42:35.613Z,97891.55
2018-11-26T03:45:41.014Z,97895.28
2018-11-26T03:48:46.536Z,97897.00
2018-11-26T03:51:52.059Z,97902.30
2018-11-26T03:54:57.460Z,97901.07
2018-11-26T03:58:02.863Z,97896.22
2018-11-26T04:01:08.144Z,97896.70
2018-11-26T04:04:13.546Z,97894.68
2018-11-26T04:07:18.950Z,97893.41
2018-11-26T04:10:24.470Z,97895.17
2018-11-26T04:13:29.993Z,97894.16
2018-11-26T04:16:35.643Z,97886.62
2018-11-26T04:19:40.924Z,97894.62
2018-11-26T04:22:46.320Z,97897.59
2018-11-26T04:25:52.081Z,97897.95
2018-11-26T04:28:57.603Z,97896.99
2018-11-26T04:32:03.005Z,97895.75
2018-11-26T04:35:08.767Z,97901.17
2018-11-26T04:38:14.410Z,97896.01
2018-11-26T04:41:20.052Z,97890.16
2018-11-26T04:44:25.454Z,97887.35
2018-11-26T04:47:30.855Z,97882.33
2018-11-26T04:50:36.258Z,97881.31
2018-11-26T04:53:41.659Z,97877.62
2018-11-26T04:56:47.061Z,97877.47
2018-11-26T04:59:52.344Z,97878.48
2018-11-26T05:02:57.872Z,97876.36
2018-11-26T05:06:03.148Z,97872.90
2018-11-26T05:09:09.149Z,97878.25
2018-11-26T05:12:14.673Z,97885.16
2018-11-26T05:15:19.954Z,97887.70
2018-11-26T05:18:25.357Z,97890.25
2018-11-26T05:21:31.002Z,97889.97
2018-11-26T05:24:36.400Z,97889.45
2018-11-26T05:27:41.803Z,97891.50
2018-11-26T05:30:47.205Z,97885.38
2018-11-26T05:33:52.607Z,97886.75
2018-11-26T05:36:58.252Z,97889.97
2018-11-26T05:40:05.937Z,97894.80
2018-11-26T05:43:11.572Z,97894.28
2018-11-26T05:46:17.457Z,97884.14
2018-11-26T05:49:23.337Z,97882.80
2018-11-26T05:52:29.222Z,97885.99
2018-11-26T05:55:35.100Z,97895.33
2018-11-26T05:58:40.624Z,97893.81
2018-11-26T06:01:46.508Z,97897.33
2018-11-26T06:04:52.270Z,97894.99
2018-11-26T06:07:58.033Z,97891.20
2018-11-26T06:11:03.791Z,97890.72
2018-11-26T06:14:09.319Z,97893.33
2018-11-26T06:17:14.835Z,97896.63
2018-11-26T06:20:20.961Z,97902.61
2018-11-26T06:23:26.483Z,97903.23
2018-11-26T06:26:32.248Z,97907.05
2018-11-26T06:29:37.883Z,97911.13
2018-11-26T06:32:43.888Z,97914.83
2018-11-26T06:35:49.888Z,97919.58
2018-11-26T06:38:55.534Z,97915.98
2018-11-26T06:42:01.298Z,97916.22
2018-11-26T06:45:22.774Z,97916.88
2018-11-26T06:48:28.298Z,97918.90
2018-11-26T06:51:33.821Z,97923.21
2018-11-26T06:54:39.345Z,97928.45
2018-11-26T06:57:44.880Z,97933.55
2018-11-26T07:00:50.506Z,97938.37
2018-11-26T07:03:56.273Z,97931.25
2018-11-26T07:07:01.916Z,97932.51
2018-11-26T07:10:08.752Z,97941.91
2018-11-26T07:13:14.273Z,97951.86
2018-11-26T07:16:20.155Z,97950.83
2018-11-26T07:19:25.916Z,97962.41
2018-11-26T07:22:31.562Z,97964.57
2018-11-26T07:25:37.576Z,97975.28
2018-11-26T07:28:43.809Z,97973.72
2018-11-26T07:31:49.688Z,97977.28
2018-11-26T07:34:55.451Z,97978.05
2018-11-26T07:38:01.451Z,97976.03
2018-11-26T07:41:07.218Z,97972.56
2018-11-26T07:44:21.020Z,97979.56
2018-11-26T07:47:26.780Z,97971.56
2018-11-26T07:50:32.551Z,97974.60
2018-11-26T07:53:38.187Z,97978.58
2018-11-26T07:56:43.828Z,97977.03
2018-11-26T07:59:49.705Z,97982.73
2018-11-26T08:02:55.227Z,97978.58
2018-11-26T08:06:01.115Z,97984.79
2018-11-26T08:09:08.195Z,97986.69
2018-11-26T08:12:13.957Z,97994.23
2018-11-26T08:15:30.158Z,98002.02
2018-11-26T08:18:36.062Z,98007.57
2018-11-26T08:21:41.801Z,98006.52
2018-11-26T08:24:47.443Z,98005.92
2018-11-26T08:27:53.091Z,98015.11
2018-11-26T08:30:58.846Z,98012.37
2018-11-26T08:34:04.730Z,98011.13
2018-11-26T08:45:16.739Z,98021.92
2018-11-26T08:48:29.221Z,98024.32
2018-11-26T08:51:35.221Z,98021.52
2018-11-26T08:54:40.863Z,98019.94
2018-11-26T08:57:46.671Z,98017.05
2018-11-26T09:00:58.026Z,98020.06
2018-11-26T09:04:04.388Z,98019.17
2018-11-26T09:07:10.154Z,98013.48
2018-11-26T09:10:15.677Z,98023.55
2018-11-26T09:13:21.437Z,98019.77
2018-11-26T09:16:27.081Z,98024.83
2018-11-26T09:19:32.847Z,98028.30
2018-11-26T09:22:38.600Z,98020.81
2018-11-26T09:25:44.485Z,98026.70
2018-11-26T09:28:53.367Z,98033.27
2018-11-26T09:31:59.011Z,98034.94
2018-11-26T09:35:06.796Z,98033.86
2018-11-26T09:38:13.135Z,98033.50
2018-11-26T09:41:18.094Z,98030.34
2018-11-26T09:44:23.739Z,98037.27
2018-11-26T09:47:29.980Z,98039.38
2018-11-26T09:50:36.461Z,98041.58
2018-11-26T10:01:44.392Z,98043.64
2018-11-26T10:04:50.160Z,98047.26
2018-11-26T10:07:55.912Z,98044.75
2018-11-26T10:11:02.041Z,98045.19
2018-11-26T10:14:08.400Z,98037.69
2018-11-26T10:17:27.122Z,98030.62
2018-11-26T10:20:33.246Z,98034.39
2018-11-26T10:23:49.087Z,98027.84
2018-11-26T10:26:55.207Z,98024.55
2018-11-26T10:30:00.846Z,98022.42
2018-11-26T10:33:06.612Z,98024.86
2018-11-26T10:36:12.494Z,98017.94
2018-11-26T10:39:18.254Z,98021.77
2018-11-26T10:42:44.896Z,98018.76
2018-11-26T10:45:50.782Z,98021.27
2018-11-26T10:48:56.421Z,98027.53
2018-11-26T10:52:02.426Z,98029.96
2018-11-26T10:55:11.189Z,98022.51
2018-11-26T10:58:17.106Z,98026.34
2018-11-26T11:01:28.474Z,98031.62
2018-11-26T11:04:34.350Z,98026.48
2018-11-26T11:07:40.476Z,98035.90
2018-11-26T11:10:47.796Z,98035.23
2018-11-26T11:13:55.718Z,98038.62
2018-11-26T11:17:02.204Z,98033.92
2018-11-26T11:20:26.204Z,98026.73
2018-11-26T11:23:31.967Z,98026.15
2018-11-26T11:26:39.292Z,98026.93
2018-11-26T11:29:44.931Z,98027.33
2018-11-26T11:32:51.649Z,98024.03
2018-11-26T11:35:57.652Z,98021.97
2018-11-26T11:39:06.660Z,98027.08
2018-11-26T11:42:12.898Z,98018.38
2018-11-26T11:45:18.900Z,98023.52
2018-11-26T11:48:24.900Z,98022.03
2018-11-26T11:51:31.627Z,98018.28
2018-11-26T11:54:37.385Z,98018.98
2018-11-26T11:57:43.160Z,98024.38
2018-11-26T12:00:49.987Z,98026.84
2018-11-26T12:03:55.875Z,98023.50
2018-11-26T12:07:01.515Z,98029.66
2018-11-26T12:10:09.315Z,98022.96
2018-11-26T12:13:17.243Z,98025.78
2018-11-26T12:16:22.879Z,98037.48
2018-11-26T12:19:38.842Z,98041.63
2018-11-26T12:22:45.809Z,98042.80
2018-11-26T12:25:52.798Z,98036.90
2018-11-26T12:28:59.608Z,98037.88
2018-11-26T12:32:05.788Z,98043.12
2018-11-26T12:35:11.851Z,98044.17
2018-11-26T12:38:17.498Z,98037.79
2018-11-26T12:41:23.256Z,98042.31
2018-11-26T12:44:47.628Z,98037.70
2018-11-26T12:47:53.621Z,98038.09
2018-11-26T12:50:59.383Z,98046.20
2018-11-26T12:54:06.833Z,98045.62
2018-11-26T12:57:12.717Z,98048.95
2018-11-26T13:00:21.709Z,98045.36
2018-11-26T13:03:27.747Z,98051.26
2018-11-26T13:10:32.639Z,98050.55
2018-11-26T13:13:38.399Z,98056.14
2018-11-26T13:16:44.897Z,98056.77
2018-11-26T13:19:50.647Z,98053.19
2018-11-26T13:22:56.294Z,98055.00
2018-11-26T13:26:01.930Z,98054.99
2018-11-26T13:29:07.330Z,98051.32
2018-11-26T13:32:12.974Z,98055.10
2018-11-26T13:35:19.094Z,98055.47
2018-11-26T13:38:24.858Z,98060.37
2018-11-26T13:41:30.739Z,98058.17
2018-11-26T13:44:36.505Z,98059.34
2018-11-26T13:47:42.748Z,98070.71
2018-11-26T13:50:55.225Z,98060.80
2018-11-26T13:54:00.868Z,98068.03
2018-11-26T13:57:06.634Z,98069.04
2018-11-26T14:00:15.392Z,98064.98
2018-11-26T14:03:21.278Z,98067.31
2018-11-26T14:10:27.640Z,98073.96
2018-11-26T14:13:33.049Z,98086.47
2018-11-26T14:16:38.566Z,98081.59
2018-11-26T14:19:52.368Z,98086.38
2018-11-26T14:22:58.373Z,98083.03
2018-11-26T14:26:04.133Z,98091.36
2018-11-26T14:29:09.893Z,98091.27
2018-11-26T14:32:15.537Z,98095.28
2018-11-26T14:35:21.301Z,98099.90
2018-11-26T14:38:27.300Z,98100.34
2018-11-26T14:41:32.942Z,98096.16
2018-11-26T14:44:38.467Z,98095.86
2018-11-26T14:47:44.471Z,98096.82
2018-11-26T14:50:50.347Z,98096.06
2018-11-26T14:53:58.029Z,98102.50
2018-11-26T14:57:03.791Z,98108.05
2018-11-26T15:00:12.438Z,98111.75
2018-11-26T15:03:18.559Z,98114.61
2018-11-26T15:06:24.201Z,98115.17
2018-11-26T15:09:29.720Z,98120.23
2018-11-26T15:12:35.606Z,98124.52
2018-11-26T15:15:41.490Z,98126.31
2018-11-26T15:18:47.014Z,98127.59
2018-11-26T15:21:52.647Z,98129.04
2018-11-26T15:24:58.175Z,98134.58
2018-11-26T15:28:31.179Z,98135.63
2018-11-26T15:31:59.140Z,98144.03
2018-11-26T15:35:14.862Z,98145.54
2018-11-26T15:38:20.627Z,98146.48
2018-11-26T15:41:39.706Z,98153.23
2018-11-26T15:44:45.227Z,98151.39
2018-11-26T15:47:55.549Z,98156.62
2018-11-26T15:51:00.947Z,98158.98
2018-11-26T15:54:06.477Z,98159.44
2018-11-26T15:57:12.235Z,98165.03
2018-11-26T16:00:22.199Z,98162.92
2018-11-26T16:03:28.080Z,98160.14
2018-11-26T16:06:33.960Z,98157.67
2018-11-26T16:09:39.605Z,98164.13
2018-11-26T16:12:46.564Z,98169.59
2018-11-26T16:15:51.967Z,98173.84
2018-11-26T16:18:57.488Z,98178.42
2018-11-26T16:22:23.889Z,98184.61
2018-11-26T16:25:29.774Z,98196.75
2018-11-26T16:28:35.295Z,98192.30
2018-11-26T16:31:40.699Z,98194.56
2018-11-26T16:34:46.220Z,98192.90
2018-11-26T16:37:51.620Z,98198.11
2018-11-26T16:40:57.147Z,98197.31
2018-11-26T16:44:02.667Z,98201.31
2018-11-26T16:47:08.426Z,98204.22
2018-11-26T16:50:15.029Z,98210.87
2018-11-26T16:53:20.673Z,98208.31
2018-11-26T16:56:26.797Z,98207.80
2018-11-26T16:59:32.555Z,98212.38
2018-11-26T17:02:38.442Z,98214.70
2018-11-26T17:05:44.318Z,98217.28
2018-11-26T17:08:50.208Z,98217.77
2018-11-26T17:11:55.968Z,98220.55
2018-11-26T17:15:01.488Z,98218.84
2018-11-26T17:18:07.850Z,98230.22
2018-11-26T17:21:13.371Z,98228.30
2018-11-26T17:24:19.013Z,98233.13
2018-11-26T17:27:24.415Z,98239.88
2018-11-26T17:30:29.937Z,98238.50
2018-11-26T17:33:36.102Z,98239.52
2018-11-26T17:36:41.465Z,98237.33
2018-11-26T17:39:47.106Z,98239.88
2018-11-26T17:42:53.229Z,98239.39
2018-11-26T17:45:58.635Z,98242.31
2018-11-26T17:49:04.992Z,98247.91
2018-11-26T17:52:10.634Z,98245.12
2018-11-26T17:55:15.915Z,98249.32
2018-11-26T17:58:29.356Z,98258.09
2018-11-26T18:01:40.047Z,98264.27
2018-11-26T18:04:45.800Z,98268.13
2018-11-26T18:08:16.881Z,98270.41
2018-11-26T18:11:22.288Z,98272.37
2018-11-26T18:14:30.207Z,98281.44
2018-11-26T18:17:36.091Z,98283.48
2018-11-26T18:20:41.619Z,98282.98
2018-11-26T18:23:47.257Z,98290.00
2018-11-26T18:26:52.895Z,98295.37
2018-11-26T18:29:58.536Z,98299.05
2018-11-26T18:33:10.420Z,98311.05
2018-11-26T18:36:16.061Z,98314.12
2018-11-26T18:39:35.864Z,98316.90
2018-11-26T18:42:47.146Z,98326.61
2018-11-26T18:45:52.671Z,98323.69
2018-11-26T18:48:58.562Z,98329.02
2018-11-26T18:52:03.969Z,98328.91
2018-11-26T18:55:10.313Z,98331.20
2018-11-26T18:58:15.959Z,98334.51
2018-11-26T19:01:21.481Z,98338.34
2018-11-26T19:04:27.360Z,98334.08
2018-11-26T19:07:33.002Z,98342.17
2018-11-26T19:10:38.773Z,98348.72
2018-11-26T19:13:51.606Z,98347.22
2018-11-26T19:16:58.813Z,98353.59
2018-11-26T19:20:05.900Z,98352.94
2018-11-26T19:23:11.654Z,98358.67
2018-11-26T19:26:17.416Z,98361.39
2018-11-26T19:29:22.940Z,98371.80
2018-11-26T19:32:28.579Z,98369.31
2018-11-26T19:35:34.106Z,98374.34
2018-11-26T19:38:39.745Z,98381.52
2018-11-26T19:41:45.384Z,98379.69
2018-11-26T19:44:51.267Z,98381.61
2018-11-26T19:47:56.910Z,98389.94
2018-11-26T19:51:02.552Z,98392.08
2018-11-26T19:54:08.083Z,98396.25
2018-11-26T19:57:13.954Z,98401.46
2018-11-26T20:08:25.368Z,98424.80
2018-11-26T20:11:33.361Z,98423.69
2018-11-26T20:14:37.128Z,98426.69
2018-11-26T20:17:43.248Z,98432.78
2018-11-26T20:20:49.377Z,98437.67
2018-11-26T20:23:55.372Z,98441.52
2018-11-26T20:27:01.138Z,98449.56
2018-11-26T20:34:06.062Z,98454.91
2018-11-26T20:37:11.701Z,98452.17
2018-11-26T20:40:21.074Z,98463.88
2018-11-26T20:43:26.589Z,98469.87
2018-11-26T20:46:32.236Z,98473.84
2018-11-26T20:49:37.750Z,98477.22
2018-11-26T20:52:43.393Z,98480.16
2018-11-26T20:55:49.663Z,98482.90
2018-11-26T20:58:55.158Z,98485.30
2018-11-26T21:02:00.919Z,98487.08
2018-11-26T21:05:07.042Z,98485.56
2018-11-26T21:08:12.446Z,98488.12
2018-11-26T21:11:17.966Z,98491.19
2018-11-26T21:14:24.448Z,98501.88
2018-11-26T21:17:31.049Z,98498.30
2018-11-26T21:20:41.013Z,98498.30
2018-11-26T21:23:46.777Z,98506.42
2018-11-26T21:26:52.296Z,98505.24
2018-11-26T21:29:57.938Z,98504.36
2018-11-26T21:33:03.340Z,98505.84
2018-11-26T21:36:08.742Z,98503.94
2018-11-26T21:39:14.503Z,98511.11
2018-11-26T21:42:20.146Z,98512.44
2018-11-26T21:45:30.587Z,98511.50
2018-11-26T21:48:36.111Z,98515.11
2018-11-26T21:51:42.233Z,98515.11
2018-11-26T21:54:47.635Z,98519.99
2018-11-26T21:57:52.923Z,98524.94
2018-11-26T22:00:59.998Z,98519.58
2018-11-26T22:04:05.883Z,98528.66
2018-11-26T22:07:11.402Z,98528.73
2018-11-26T22:10:18.245Z,98530.28
2018-11-26T22:13:30.248Z,98531.09
2018-11-26T22:16:35.649Z,98535.45
2018-11-26T22:19:41.291Z,98544.91
2018-11-26T22:22:46.933Z,98544.63
2018-11-26T22:25:52.495Z,98541.31
2018-11-26T22:28:57.977Z,98551.27
2018-11-26T22:32:18.259Z,98554.05
2018-11-26T22:35:23.661Z,98552.96
2018-11-26T22:38:29.063Z,98554.30
2018-11-26T22:41:34.826Z,98556.59
2018-11-26T22:44:40.108Z,98564.80
2018-11-26T22:47:48.149Z,98565.06
2018-11-26T22:50:53.551Z,98573.94
2018-11-26T22:53:59.074Z,98567.34
2018-11-26T22:57:05.554Z,98572.82
2018-11-26T23:03:17.200Z,98570.70
2018-11-26T23:06:22.606Z,98581.97
2018-11-26T23:09:28.124Z,98583.45
2018-11-26T23:12:33.526Z,98587.47
2018-11-26T23:15:38.969Z,98590.83
2018-11-26T23:18:44.330Z,98591.28
2018-11-26T23:21:50.482Z,98594.64
2018-11-26T23:24:55.134Z,98598.37
2018-11-26T23:28:00.536Z,98596.70
2018-11-26T23:31:06.180Z,98596.64
2018-11-26T23:34:11.460Z,98605.37
2018-11-26T23:37:16.864Z,98605.13
2018-11-26T23:40:22.151Z,98604.13
2018-11-26T23:43:27.546Z,98600.14
2018-11-26T23:46:32.949Z,98601.23
2018-11-26T23:49:38.472Z,98601.39
2018-11-26T23:52:44.353Z,98607.47
2018-11-26T23:55:49.995Z,98609.27
2018-11-26T23:58:55.517Z,98615.30
